Baker City, Oregon
Current Conditions -  °F | °C
As of 12:53 PM on Monday 24 Nov 2014 (Local Time) from KBKE Reporting Station
Clear Clear  
Wind Chill: 32°   Ceiling: Unl
Heat Index: 40°   Visibility: 10mi
Dew Point: 30°   Wind: 14mph
Humidity: 68%   Direction: 60°ENE
Pressure: 30.37"   Gusts: NA
Location:  44.77°N, 117.83°W
Report Text: KBKE 242053Z AUTO 06012KT 10SM CLR 04/M01 A3037 RMK AO2 SLP302 T00441011 58016
Loading
Personal Weather Stations






























Interactive Weather Map New forecast layout! Learn more

10-Day Weather Forecast

Advertisements
Track Severe Weather on mobile